sensor_id;sensor_type;location;lat;lon;timestamp;P1;durP1;ratioP1;P2;durP2;ratioP2
9888;SDS011;4983;42.112;24.738;2023-01-08T00:00:04;39.03;;;29.70;;
9888;SDS011;4983;42.112;24.738;2023-01-08T00:02:31;38.93;;;28.10;;
9888;SDS011;4983;42.112;24.738;2023-01-08T00:04:58;38.73;;;26.57;;
9888;SDS011;4983;42.112;24.738;2023-01-08T00:07:25;37.20;;;27.70;;
9888;SDS011;4983;42.112;24.738;2023-01-08T00:09:51;35.00;;;26.40;;
9888;SDS011;4983;42.112;24.738;2023-01-08T00:12:19;38.07;;;27.43;;
9888;SDS011;4983;42.112;24.738;2023-01-08T00:14:45;38.37;;;27.80;;
9888;SDS011;4983;42.112;24.738;2023-01-08T00:17:13;38.00;;;26.90;;
9888;SDS011;4983;42.112;24.738;2023-01-08T00:19:40;38.60;;;26.97;;
9888;SDS011;4983;42.112;24.738;2023-01-08T00:22:07;39.67;;;27.07;;
9888;SDS011;4983;42.112;24.738;2023-01-08T00:24:33;42.30;;;27.67;;
9888;SDS011;4983;42.112;24.738;2023-01-08T00:27:00;37.93;;;26.63;;
9888;SDS011;4983;42.112;24.738;2023-01-08T00:29:26;39.63;;;27.83;;
9888;SDS011;4983;42.112;24.738;2023-01-08T00:31:53;40.37;;;26.77;;
9888;SDS011;4983;42.112;24.738;2023-01-08T00:34:21;40.67;;;27.73;;
9888;SDS011;4983;42.112;24.738;2023-01-08T00:36:48;43.60;;;29.93;;
9888;SDS011;4983;42.112;24.738;2023-01-08T00:39:15;41.80;;;28.57;;
9888;SDS011;4983;42.112;24.738;2023-01-08T00:41:41;44.90;;;30.73;;
9888;SDS011;4983;42.112;24.738;2023-01-08T00:44:09;49.77;;;29.57;;
9888;SDS011;4983;42.112;24.738;2023-01-08T00:46:36;53.57;;;30.43;;
9888;SDS011;4983;42.112;24.738;2023-01-08T00:49:03;49.17;;;30.13;;
9888;SDS011;4983;42.112;24.738;2023-01-08T00:51:31;49.03;;;30.70;;
9888;SDS011;4983;42.112;24.738;2023-01-08T00:53:57;51.83;;;32.10;;
9888;SDS011;4983;42.112;24.738;2023-01-08T00:56:24;43.17;;;29.63;;
9888;SDS011;4983;42.112;24.738;2023-01-08T00:58:51;39.73;;;28.80;;
9888;SDS011;4983;42.112;24.738;2023-01-08T01:01:17;37.13;;;26.73;;
9888;SDS011;4983;42.112;24.738;2023-01-08T01:03:44;39.10;;;27.47;;
9888;SDS011;4983;42.112;24.738;2023-01-08T01:06:11;34.17;;;26.40;;
9888;SDS011;4983;42.112;24.738;2023-01-08T01:08:39;40.43;;;28.07;;
9888;SDS011;4983;42.112;24.738;2023-01-08T01:11:06;36.57;;;27.30;;
9888;SDS011;4983;42.112;24.738;2023-01-08T01:13:33;40.50;;;27.63;;
9888;SDS011;4983;42.112;24.738;2023-01-08T01:16:00;39.93;;;27.70;;
9888;SDS011;4983;42.112;24.738;2023-01-08T01:18:27;40.60;;;27.17;;
9888;SDS011;4983;42.112;24.738;2023-01-08T01:20:54;35.40;;;27.00;;
9888;SDS011;4983;42.112;24.738;2023-01-08T01:23:21;37.60;;;26.33;;
9888;SDS011;4983;42.112;24.738;2023-01-08T01:25:48;35.97;;;27.87;;
9888;SDS011;4983;42.112;24.738;2023-01-08T01:28:15;37.87;;;28.87;;
9888;SDS011;4983;42.112;24.738;2023-01-08T01:30:42;36.10;;;26.43;;
9888;SDS011;4983;42.112;24.738;2023-01-08T01:33:08;37.63;;;27.60;;
9888;SDS011;4983;42.112;24.738;2023-01-08T01:35:35;36.57;;;27.37;;
9888;SDS011;4983;42.112;24.738;2023-01-08T01:38:02;65.83;;;38.00;;
9888;SDS011;4983;42.112;24.738;2023-01-08T01:40:28;76.47;;;41.37;;
9888;SDS011;4983;42.112;24.738;2023-01-08T01:42:56;56.70;;;34.93;;
9888;SDS011;4983;42.112;24.738;2023-01-08T01:45:24;41.97;;;27.93;;
9888;SDS011;4983;42.112;24.738;2023-01-08T01:47:53;33.00;;;25.23;;
9888;SDS011;4983;42.112;24.738;2023-01-08T01:50:21;50.90;;;28.00;;
9888;SDS011;4983;42.112;24.738;2023-01-08T01:52:49;46.17;;;28.30;;
9888;SDS011;4983;42.112;24.738;2023-01-08T01:55:18;44.70;;;26.40;;
9888;SDS011;4983;42.112;24.738;2023-01-08T01:57:56;34.17;;;23.93;;
9888;SDS011;4983;42.112;24.738;2023-01-08T02:00:27;35.77;;;24.67;;
9888;SDS011;4983;42.112;24.738;2023-01-08T02:02:55;32.97;;;24.43;;
9888;SDS011;4983;42.112;24.738;2023-01-08T02:05:22;31.37;;;23.30;;
9888;SDS011;4983;42.112;24.738;2023-01-08T02:07:53;34.87;;;24.30;;
9888;SDS011;4983;42.112;24.738;2023-01-08T02:10:24;32.23;;;23.43;;
9888;SDS011;4983;42.112;24.738;2023-01-08T02:12:55;32.97;;;24.47;;
9888;SDS011;4983;42.112;24.738;2023-01-08T02:15:24;33.37;;;23.37;;
9888;SDS011;4983;42.112;24.738;2023-01-08T02:17:54;30.27;;;23.17;;
9888;SDS011;4983;42.112;24.738;2023-01-08T02:20:22;48.60;;;33.37;;
9888;SDS011;4983;42.112;24.738;2023-01-08T02:22:52;48.10;;;33.87;;
9888;SDS011;4983;42.112;24.738;2023-01-08T02:25:30;42.50;;;28.10;;
9888;SDS011;4983;42.112;24.738;2023-01-08T02:28:00;34.33;;;25.03;;
9888;SDS011;4983;42.112;24.738;2023-01-08T02:30:27;41.90;;;27.77;;
9888;SDS011;4983;42.112;24.738;2023-01-08T02:32:54;36.50;;;26.13;;
9888;SDS011;4983;42.112;24.738;2023-01-08T02:35:20;31.73;;;23.50;;
9888;SDS011;4983;42.112;24.738;2023-01-08T02:37:47;33.93;;;24.90;;
9888;SDS011;4983;42.112;24.738;2023-01-08T02:40:18;45.17;;;27.13;;
9888;SDS011;4983;42.112;24.738;2023-01-08T02:42:46;44.40;;;26.90;;
9888;SDS011;4983;42.112;24.738;2023-01-08T02:45:23;36.63;;;23.73;;
9888;SDS011;4983;42.112;24.738;2023-01-08T02:47:53;36.97;;;24.33;;
9888;SDS011;4983;42.112;24.738;2023-01-08T02:50:20;36.30;;;23.20;;
9888;SDS011;4983;42.112;24.738;2023-01-08T02:52:52;32.70;;;23.00;;
9888;SDS011;4983;42.112;24.738;2023-01-08T02:55:21;30.23;;;22.03;;
9888;SDS011;4983;42.112;24.738;2023-01-08T02:57:49;28.30;;;20.60;;
9888;SDS011;4983;42.112;24.738;2023-01-08T03:00:16;27.73;;;20.47;;
9888;SDS011;4983;42.112;24.738;2023-01-08T03:02:44;28.93;;;21.10;;
9888;SDS011;4983;42.112;24.738;2023-01-08T03:05:14;26.63;;;21.33;;
9888;SDS011;4983;42.112;24.738;2023-01-08T03:07:43;25.70;;;20.87;;
9888;SDS011;4983;42.112;24.738;2023-01-08T03:10:10;24.67;;;19.63;;
9888;SDS011;4983;42.112;24.738;2023-01-08T03:12:40;24.03;;;18.73;;
9888;SDS011;4983;42.112;24.738;2023-01-08T03:15:08;27.17;;;19.00;;
9888;SDS011;4983;42.112;24.738;2023-01-08T03:17:37;25.27;;;17.27;;
9888;SDS011;4983;42.112;24.738;2023-01-08T03:20:09;18.40;;;14.77;;
9888;SDS011;4983;42.112;24.738;2023-01-08T03:22:38;25.93;;;15.07;;
9888;SDS011;4983;42.112;24.738;2023-01-08T03:25:06;20.00;;;13.90;;
9888;SDS011;4983;42.112;24.738;2023-01-08T03:27:34;25.13;;;15.10;;
9888;SDS011;4983;42.112;24.738;2023-01-08T03:30:01;21.47;;;15.53;;
9888;SDS011;4983;42.112;24.738;2023-01-08T03:32:30;23.37;;;16.13;;
9888;SDS011;4983;42.112;24.738;2023-01-08T03:34:57;19.40;;;15.43;;
9888;SDS011;4983;42.112;24.738;2023-01-08T03:37:26;20.37;;;16.03;;
9888;SDS011;4983;42.112;24.738;2023-01-08T03:39:55;22.70;;;15.77;;
9888;SDS011;4983;42.112;24.738;2023-01-08T03:42:22;20.67;;;15.60;;
9888;SDS011;4983;42.112;24.738;2023-01-08T03:44:50;23.13;;;17.07;;
9888;SDS011;4983;42.112;24.738;2023-01-08T03:47:17;27.17;;;16.80;;
9888;SDS011;4983;42.112;24.738;2023-01-08T03:49:45;25.03;;;17.60;;
9888;SDS011;4983;42.112;24.738;2023-01-08T03:52:19;24.27;;;17.17;;
9888;SDS011;4983;42.112;24.738;2023-01-08T03:54:47;26.40;;;20.60;;
9888;SDS011;4983;42.112;24.738;2023-01-08T03:57:14;23.23;;;19.97;;
9888;SDS011;4983;42.112;24.738;2023-01-08T03:59:40;23.97;;;18.47;;
9888;SDS011;4983;42.112;24.738;2023-01-08T04:02:07;24.37;;;16.97;;
9888;SDS011;4983;42.112;24.738;2023-01-08T04:04:34;44.07;;;17.80;;
9888;SDS011;4983;42.112;24.738;2023-01-08T04:07:00;40.63;;;18.00;;
9888;SDS011;4983;42.112;24.738;2023-01-08T04:09:27;22.40;;;15.67;;
9888;SDS011;4983;42.112;24.738;2023-01-08T04:11:55;24.23;;;16.90;;
9888;SDS011;4983;42.112;24.738;2023-01-08T04:14:21;19.63;;;15.43;;
9888;SDS011;4983;42.112;24.738;2023-01-08T04:16:48;29.03;;;16.00;;
9888;SDS011;4983;42.112;24.738;2023-01-08T04:19:14;20.00;;;14.70;;
9888;SDS011;4983;42.112;24.738;2023-01-08T04:21:41;23.33;;;14.40;;
9888;SDS011;4983;42.112;24.738;2023-01-08T04:24:08;48.73;;;16.33;;
9888;SDS011;4983;42.112;24.738;2023-01-08T04:26:34;27.10;;;13.90;;
9888;SDS011;4983;42.112;24.738;2023-01-08T04:29:02;25.00;;;13.97;;
9888;SDS011;4983;42.112;24.738;2023-01-08T04:31:31;17.73;;;12.40;;
9888;SDS011;4983;42.112;24.738;2023-01-08T04:33:57;18.13;;;13.23;;
9888;SDS011;4983;42.112;24.738;2023-01-08T04:36:24;16.67;;;13.33;;
9888;SDS011;4983;42.112;24.738;2023-01-08T04:38:50;18.30;;;13.13;;
9888;SDS011;4983;42.112;24.738;2023-01-08T04:41:18;19.60;;;14.23;;
9888;SDS011;4983;42.112;24.738;2023-01-08T04:43:44;26.23;;;13.67;;
9888;SDS011;4983;42.112;24.738;2023-01-08T04:46:12;69.17;;;18.10;;
9888;SDS011;4983;42.112;24.738;2023-01-08T04:48:39;56.57;;;17.37;;
9888;SDS011;4983;42.112;24.738;2023-01-08T04:51:05;38.50;;;15.83;;
9888;SDS011;4983;42.112;24.738;2023-01-08T04:53:33;30.53;;;16.03;;
9888;SDS011;4983;42.112;24.738;2023-01-08T04:56:01;34.00;;;16.50;;
9888;SDS011;4983;42.112;24.738;2023-01-08T04:58:28;27.90;;;15.87;;
9888;SDS011;4983;42.112;24.738;2023-01-08T05:00:55;26.43;;;16.83;;
9888;SDS011;4983;42.112;24.738;2023-01-08T05:03:23;116.33;;;23.27;;
9888;SDS011;4983;42.112;24.738;2023-01-08T05:05:50;22.53;;;15.23;;
9888;SDS011;4983;42.112;24.738;2023-01-08T05:08:16;38.40;;;17.53;;
9888;SDS011;4983;42.112;24.738;2023-01-08T05:10:43;24.47;;;18.73;;
9888;SDS011;4983;42.112;24.738;2023-01-08T05:13:09;20.63;;;15.60;;
9888;SDS011;4983;42.112;24.738;2023-01-08T05:15:36;39.50;;;17.40;;
9888;SDS011;4983;42.112;24.738;2023-01-08T05:18:04;52.00;;;18.07;;
9888;SDS011;4983;42.112;24.738;2023-01-08T05:20:32;35.10;;;16.80;;
9888;SDS011;4983;42.112;24.738;2023-01-08T05:22:58;39.53;;;16.47;;
9888;SDS011;4983;42.112;24.738;2023-01-08T05:25:25;26.60;;;15.87;;
9888;SDS011;4983;42.112;24.738;2023-01-08T05:27:51;21.20;;;15.33;;
9888;SDS011;4983;42.112;24.738;2023-01-08T05:30:18;42.63;;;16.07;;
9888;SDS011;4983;42.112;24.738;2023-01-08T05:32:45;21.37;;;14.90;;
9888;SDS011;4983;42.112;24.738;2023-01-08T05:35:11;62.10;;;21.07;;
9888;SDS011;4983;42.112;24.738;2023-01-08T05:37:39;29.07;;;16.70;;
9888;SDS011;4983;42.112;24.738;2023-01-08T05:40:06;29.83;;;15.70;;
9888;SDS011;4983;42.112;24.738;2023-01-08T05:42:33;35.07;;;16.87;;
9888;SDS011;4983;42.112;24.738;2023-01-08T05:45:00;25.50;;;14.90;;
9888;SDS011;4983;42.112;24.738;2023-01-08T05:47:28;18.97;;;13.80;;
9888;SDS011;4983;42.112;24.738;2023-01-08T05:49:54;21.13;;;15.07;;
9888;SDS011;4983;42.112;24.738;2023-01-08T05:52:21;22.07;;;15.90;;
9888;SDS011;4983;42.112;24.738;2023-01-08T05:54:49;28.40;;;18.67;;
9888;SDS011;4983;42.112;24.738;2023-01-08T05:57:15;34.43;;;23.37;;
9888;SDS011;4983;42.112;24.738;2023-01-08T05:59:42;43.53;;;24.40;;
9888;SDS011;4983;42.112;24.738;2023-01-08T06:02:08;39.40;;;22.20;;
9888;SDS011;4983;42.112;24.738;2023-01-08T06:04:35;31.30;;;20.73;;
9888;SDS011;4983;42.112;24.738;2023-01-08T06:07:02;30.40;;;20.27;;
9888;SDS011;4983;42.112;24.738;2023-01-08T06:09:28;54.50;;;22.87;;
9888;SDS011;4983;42.112;24.738;2023-01-08T06:11:56;37.83;;;21.70;;
9888;SDS011;4983;42.112;24.738;2023-01-08T06:14:23;30.20;;;22.23;;
9888;SDS011;4983;42.112;24.738;2023-01-08T06:16:50;27.93;;;20.70;;
9888;SDS011;4983;42.112;24.738;2023-01-08T06:19:16;32.17;;;21.43;;
9888;SDS011;4983;42.112;24.738;2023-01-08T06:21:43;35.97;;;23.47;;
9888;SDS011;4983;42.112;24.738;2023-01-08T06:24:10;45.20;;;24.17;;
9888;SDS011;4983;42.112;24.738;2023-01-08T06:26:36;38.90;;;23.23;;
9888;SDS011;4983;42.112;24.738;2023-01-08T06:29:04;35.83;;;20.87;;
9888;SDS011;4983;42.112;24.738;2023-01-08T06:31:31;38.07;;;21.53;;
9888;SDS011;4983;42.112;24.738;2023-01-08T06:33:58;35.00;;;22.83;;
9888;SDS011;4983;42.112;24.738;2023-01-08T06:36:25;31.77;;;21.80;;
9888;SDS011;4983;42.112;24.738;2023-01-08T06:38:51;28.43;;;22.40;;
9888;SDS011;4983;42.112;24.738;2023-01-08T06:41:20;35.70;;;22.20;;
9888;SDS011;4983;42.112;24.738;2023-01-08T06:43:47;51.57;;;26.80;;
9888;SDS011;4983;42.112;24.738;2023-01-08T06:46:14;56.27;;;27.57;;
9888;SDS011;4983;42.112;24.738;2023-01-08T06:48:41;33.60;;;22.43;;
9888;SDS011;4983;42.112;24.738;2023-01-08T06:51:08;34.60;;;23.60;;
9888;SDS011;4983;42.112;24.738;2023-01-08T06:53:35;34.47;;;23.97;;
9888;SDS011;4983;42.112;24.738;2023-01-08T06:56:02;70.07;;;26.23;;
9888;SDS011;4983;42.112;24.738;2023-01-08T06:58:29;51.37;;;26.40;;
9888;SDS011;4983;42.112;24.738;2023-01-08T07:00:55;65.10;;;28.57;;
9888;SDS011;4983;42.112;24.738;2023-01-08T07:03:24;46.77;;;24.37;;
9888;SDS011;4983;42.112;24.738;2023-01-08T07:05:51;31.87;;;22.23;;
9888;SDS011;4983;42.112;24.738;2023-01-08T07:08:17;30.83;;;21.10;;
9888;SDS011;4983;42.112;24.738;2023-01-08T07:10:44;29.97;;;21.60;;
9888;SDS011;4983;42.112;24.738;2023-01-08T07:13:11;25.70;;;19.97;;
9888;SDS011;4983;42.112;24.738;2023-01-08T07:15:39;29.33;;;21.70;;
9888;SDS011;4983;42.112;24.738;2023-01-08T07:18:06;44.37;;;22.97;;
9888;SDS011;4983;42.112;24.738;2023-01-08T07:20:34;40.87;;;25.43;;
9888;SDS011;4983;42.112;24.738;2023-01-08T07:23:01;41.13;;;23.43;;
9888;SDS011;4983;42.112;24.738;2023-01-08T07:25:28;61.67;;;26.67;;
9888;SDS011;4983;42.112;24.738;2023-01-08T07:27:55;36.90;;;21.63;;
9888;SDS011;4983;42.112;24.738;2023-01-08T07:30:22;39.27;;;22.33;;
9888;SDS011;4983;42.112;24.738;2023-01-08T07:32:50;28.30;;;19.47;;
9888;SDS011;4983;42.112;24.738;2023-01-08T07:35:16;30.40;;;20.40;;
9888;SDS011;4983;42.112;24.738;2023-01-08T07:37:44;26.90;;;20.63;;
9888;SDS011;4983;42.112;24.738;2023-01-08T07:40:11;26.10;;;18.53;;
9888;SDS011;4983;42.112;24.738;2023-01-08T07:42:38;26.20;;;17.93;;
9888;SDS011;4983;42.112;24.738;2023-01-08T07:45:05;22.80;;;18.30;;
9888;SDS011;4983;42.112;24.738;2023-01-08T07:47:32;32.27;;;16.23;;
9888;SDS011;4983;42.112;24.738;2023-01-08T07:49:58;21.90;;;17.33;;
9888;SDS011;4983;42.112;24.738;2023-01-08T07:52:25;24.57;;;16.83;;
9888;SDS011;4983;42.112;24.738;2023-01-08T07:54:53;19.80;;;14.63;;
9888;SDS011;4983;42.112;24.738;2023-01-08T07:57:19;23.60;;;15.70;;
9888;SDS011;4983;42.112;24.738;2023-01-08T07:59:46;18.60;;;14.37;;
9888;SDS011;4983;42.112;24.738;2023-01-08T08:02:13;23.43;;;13.97;;
9888;SDS011;4983;42.112;24.738;2023-01-08T08:04:39;21.60;;;14.53;;
9888;SDS011;4983;42.112;24.738;2023-01-08T08:07:06;20.87;;;14.77;;
9888;SDS011;4983;42.112;24.738;2023-01-08T08:09:33;18.87;;;13.27;;
9888;SDS011;4983;42.112;24.738;2023-01-08T08:12:01;33.90;;;14.10;;
9888;SDS011;4983;42.112;24.738;2023-01-08T08:14:28;22.57;;;14.80;;
9888;SDS011;4983;42.112;24.738;2023-01-08T08:16:55;21.57;;;13.47;;
9888;SDS011;4983;42.112;24.738;2023-01-08T08:19:22;22.93;;;14.70;;
9888;SDS011;4983;42.112;24.738;2023-01-08T08:21:48;34.47;;;16.17;;
9888;SDS011;4983;42.112;24.738;2023-01-08T08:24:15;21.53;;;17.93;;
9888;SDS011;4983;42.112;24.738;2023-01-08T08:26:41;28.20;;;19.80;;
9888;SDS011;4983;42.112;24.738;2023-01-08T08:29:09;25.03;;;18.33;;
9888;SDS011;4983;42.112;24.738;2023-01-08T08:31:36;18.07;;;15.73;;
9888;SDS011;4983;42.112;24.738;2023-01-08T08:34:03;18.60;;;14.60;;
9888;SDS011;4983;42.112;24.738;2023-01-08T08:36:31;19.90;;;15.63;;
9888;SDS011;4983;42.112;24.738;2023-01-08T08:38:57;18.53;;;14.43;;
9888;SDS011;4983;42.112;24.738;2023-01-08T08:41:24;53.63;;;18.60;;
9888;SDS011;4983;42.112;24.738;2023-01-08T08:43:50;30.87;;;15.03;;
9888;SDS011;4983;42.112;24.738;2023-01-08T08:46:18;23.60;;;13.97;;
9888;SDS011;4983;42.112;24.738;2023-01-08T08:48:45;20.07;;;12.73;;
9888;SDS011;4983;42.112;24.738;2023-01-08T08:51:12;13.23;;;10.93;;
9888;SDS011;4983;42.112;24.738;2023-01-08T08:53:38;32.43;;;13.87;;
9888;SDS011;4983;42.112;24.738;2023-01-08T08:56:05;15.57;;;11.80;;
9888;SDS011;4983;42.112;24.738;2023-01-08T08:58:32;16.47;;;11.13;;
9888;SDS011;4983;42.112;24.738;2023-01-08T09:00:59;14.30;;;11.50;;
9888;SDS011;4983;42.112;24.738;2023-01-08T09:03:28;17.30;;;11.63;;
9888;SDS011;4983;42.112;24.738;2023-01-08T09:05:55;12.93;;;10.67;;
9888;SDS011;4983;42.112;24.738;2023-01-08T09:08:21;22.73;;;10.97;;
9888;SDS011;4983;42.112;24.738;2023-01-08T09:10:48;16.20;;;9.47;;
9888;SDS011;4983;42.112;24.738;2023-01-08T09:13:14;14.70;;;9.83;;
9888;SDS011;4983;42.112;24.738;2023-01-08T09:15:41;19.90;;;9.73;;
9888;SDS011;4983;42.112;24.738;2023-01-08T09:18:08;18.70;;;9.70;;
9888;SDS011;4983;42.112;24.738;2023-01-08T09:20:36;32.43;;;11.13;;
9888;SDS011;4983;42.112;24.738;2023-01-08T09:23:03;14.00;;;9.87;;
9888;SDS011;4983;42.112;24.738;2023-01-08T09:25:31;11.83;;;8.93;;
9888;SDS011;4983;42.112;24.738;2023-01-08T09:27:58;9.63;;;7.87;;
9888;SDS011;4983;42.112;24.738;2023-01-08T09:30:25;11.33;;;8.47;;
9888;SDS011;4983;42.112;24.738;2023-01-08T09:32:54;10.90;;;8.27;;
9888;SDS011;4983;42.112;24.738;2023-01-08T09:35:21;10.03;;;8.13;;
9888;SDS011;4983;42.112;24.738;2023-01-08T09:37:51;9.60;;;7.60;;
9888;SDS011;4983;42.112;24.738;2023-01-08T09:40:18;9.67;;;7.60;;
9888;SDS011;4983;42.112;24.738;2023-01-08T09:42:45;11.20;;;7.93;;
9888;SDS011;4983;42.112;24.738;2023-01-08T09:45:15;11.60;;;7.40;;
9888;SDS011;4983;42.112;24.738;2023-01-08T09:47:45;10.37;;;7.17;;
9888;SDS011;4983;42.112;24.738;2023-01-08T09:50:12;8.50;;;7.13;;
9888;SDS011;4983;42.112;24.738;2023-01-08T09:52:40;9.63;;;6.70;;
9888;SDS011;4983;42.112;24.738;2023-01-08T09:55:10;9.27;;;7.40;;
9888;SDS011;4983;42.112;24.738;2023-01-08T09:57:37;8.60;;;6.40;;
9888;SDS011;4983;42.112;24.738;2023-01-08T10:00:09;9.60;;;6.80;;
9888;SDS011;4983;42.112;24.738;2023-01-08T10:02:36;9.30;;;6.67;;
9888;SDS011;4983;42.112;24.738;2023-01-08T10:05:09;15.20;;;7.53;;
9888;SDS011;4983;42.112;24.738;2023-01-08T10:07:37;13.50;;;6.70;;
9888;SDS011;4983;42.112;24.738;2023-01-08T10:10:05;8.17;;;6.10;;
9888;SDS011;4983;42.112;24.738;2023-01-08T10:12:42;7.00;;;6.30;;
9888;SDS011;4983;42.112;24.738;2023-01-08T10:15:10;8.53;;;6.00;;
9888;SDS011;4983;42.112;24.738;2023-01-08T10:17:40;6.73;;;5.87;;
9888;SDS011;4983;42.112;24.738;2023-01-08T10:20:10;8.97;;;6.57;;
9888;SDS011;4983;42.112;24.738;2023-01-08T10:22:38;7.30;;;6.43;;
9888;SDS011;4983;42.112;24.738;2023-01-08T10:25:06;8.70;;;6.87;;
9888;SDS011;4983;42.112;24.738;2023-01-08T10:27:36;8.07;;;6.27;;
9888;SDS011;4983;42.112;24.738;2023-01-08T10:30:13;11.47;;;7.87;;
9888;SDS011;4983;42.112;24.738;2023-01-08T10:32:44;8.83;;;7.00;;
9888;SDS011;4983;42.112;24.738;2023-01-08T10:35:13;7.93;;;6.87;;
9888;SDS011;4983;42.112;24.738;2023-01-08T10:37:43;7.90;;;6.73;;
9888;SDS011;4983;42.112;24.738;2023-01-08T10:40:16;27.97;;;9.23;;
9888;SDS011;4983;42.112;24.738;2023-01-08T10:42:46;12.27;;;7.17;;
9888;SDS011;4983;42.112;24.738;2023-01-08T10:45:17;11.03;;;7.00;;
9888;SDS011;4983;42.112;24.738;2023-01-08T10:47:45;13.37;;;7.30;;
9888;SDS011;4983;42.112;24.738;2023-01-08T10:50:15;8.87;;;7.00;;
9888;SDS011;4983;42.112;24.738;2023-01-08T10:52:50;8.97;;;6.37;;
9888;SDS011;4983;42.112;24.738;2023-01-08T10:55:20;11.47;;;6.53;;
9888;SDS011;4983;42.112;24.738;2023-01-08T10:57:52;8.97;;;6.30;;
9888;SDS011;4983;42.112;24.738;2023-01-08T11:00:24;10.97;;;6.80;;
9888;SDS011;4983;42.112;24.738;2023-01-08T11:02:53;8.70;;;6.82;;
9888;SDS011;4983;42.112;24.738;2023-01-08T11:05:27;7.90;;;6.63;;
9888;SDS011;4983;42.112;24.738;2023-01-08T11:07:55;7.20;;;6.23;;
9888;SDS011;4983;42.112;24.738;2023-01-08T11:10:23;9.40;;;6.13;;
9888;SDS011;4983;42.112;24.738;2023-01-08T11:12:54;8.63;;;6.50;;
9888;SDS011;4983;42.112;24.738;2023-01-08T11:15:27;13.63;;;6.17;;
9888;SDS011;4983;42.112;24.738;2023-01-08T11:18:02;26.20;;;7.90;;
9888;SDS011;4983;42.112;24.738;2023-01-08T11:20:29;10.90;;;6.60;;
9888;SDS011;4983;42.112;24.738;2023-01-08T11:23:03;13.23;;;6.67;;
9888;SDS011;4983;42.112;24.738;2023-01-08T11:25:29;39.83;;;8.77;;
9888;SDS011;4983;42.112;24.738;2023-01-08T11:27:56;9.43;;;6.40;;
9888;SDS011;4983;42.112;24.738;2023-01-08T11:30:26;85.43;;;14.43;;
9888;SDS011;4983;42.112;24.738;2023-01-08T11:32:57;35.40;;;8.00;;
9888;SDS011;4983;42.112;24.738;2023-01-08T11:35:26;18.17;;;7.00;;
9888;SDS011;4983;42.112;24.738;2023-01-08T11:37:54;14.50;;;7.30;;
9888;SDS011;4983;42.112;24.738;2023-01-08T11:40:32;7.60;;;6.43;;
9888;SDS011;4983;42.112;24.738;2023-01-08T11:45:59;7.97;;;6.60;;
9888;SDS011;4983;42.112;24.738;2023-01-08T11:48:34;8.53;;;6.63;;
9888;SDS011;4983;42.112;24.738;2023-01-08T11:51:09;10.53;;;6.90;;
9888;SDS011;4983;42.112;24.738;2023-01-08T11:53:40;7.83;;;6.93;;
9888;SDS011;4983;42.112;24.738;2023-01-08T11:56:11;9.13;;;6.47;;
9888;SDS011;4983;42.112;24.738;2023-01-08T11:58:45;23.90;;;7.57;;
9888;SDS011;4983;42.112;24.738;2023-01-08T12:01:24;26.90;;;8.63;;
9888;SDS011;4983;42.112;24.738;2023-01-08T12:04:00;12.47;;;7.00;;
9888;SDS011;4983;42.112;24.738;2023-01-08T12:06:32;10.40;;;6.20;;
9888;SDS011;4983;42.112;24.738;2023-01-08T12:09:06;9.27;;;6.50;;
9888;SDS011;4983;42.112;24.738;2023-01-08T12:11:35;9.30;;;6.10;;
9888;SDS011;4983;42.112;24.738;2023-01-08T12:14:08;8.73;;;6.63;;
9888;SDS011;4983;42.112;24.738;2023-01-08T12:16:46;10.97;;;7.87;;
9888;SDS011;4983;42.112;24.738;2023-01-08T12:19:22;12.07;;;8.30;;
9888;SDS011;4983;42.112;24.738;2023-01-08T12:21:58;15.90;;;7.40;;
9888;SDS011;4983;42.112;24.738;2023-01-08T12:24:34;18.30;;;7.60;;
9888;SDS011;4983;42.112;24.738;2023-01-08T12:27:05;9.20;;;6.67;;
9888;SDS011;4983;42.112;24.738;2023-01-08T12:29:50;8.47;;;7.30;;
9888;SDS011;4983;42.112;24.738;2023-01-08T12:32:22;8.93;;;6.93;;
9888;SDS011;4983;42.112;24.738;2023-01-08T12:34:53;8.90;;;6.50;;
9888;SDS011;4983;42.112;24.738;2023-01-08T12:37:23;49.23;;;12.50;;
9888;SDS011;4983;42.112;24.738;2023-01-08T12:39:52;16.40;;;7.73;;
9888;SDS011;4983;42.112;24.738;2023-01-08T12:42:21;9.63;;;7.43;;
9888;SDS011;4983;42.112;24.738;2023-01-08T12:44:52;8.47;;;7.20;;
9888;SDS011;4983;42.112;24.738;2023-01-08T12:47:23;8.70;;;7.20;;
9888;SDS011;4983;42.112;24.738;2023-01-08T12:49:53;9.83;;;6.97;;
9888;SDS011;4983;42.112;24.738;2023-01-08T12:52:23;11.40;;;7.57;;
9888;SDS011;4983;42.112;24.738;2023-01-08T12:54:57;41.47;;;9.57;;
9888;SDS011;4983;42.112;24.738;2023-01-08T12:57:26;15.40;;;7.30;;
9888;SDS011;4983;42.112;24.738;2023-01-08T12:59:55;21.17;;;8.90;;
9888;SDS011;4983;42.112;24.738;2023-01-08T13:02:29;16.03;;;8.03;;
9888;SDS011;4983;42.112;24.738;2023-01-08T13:04:58;9.80;;;7.20;;
9888;SDS011;4983;42.112;24.738;2023-01-08T13:07:36;9.23;;;7.23;;
9888;SDS011;4983;42.112;24.738;2023-01-08T13:10:04;22.77;;;6.53;;
9888;SDS011;4983;42.112;24.738;2023-01-08T13:12:32;7.90;;;5.77;;
9888;SDS011;4983;42.112;24.738;2023-01-08T13:14:59;25.20;;;6.57;;
9888;SDS011;4983;42.112;24.738;2023-01-08T13:17:27;8.20;;;6.43;;
9888;SDS011;4983;42.112;24.738;2023-01-08T13:19:58;8.30;;;6.03;;
9888;SDS011;4983;42.112;24.738;2023-01-08T13:22:26;14.00;;;5.90;;
9888;SDS011;4983;42.112;24.738;2023-01-08T13:25:06;7.67;;;5.90;;
9888;SDS011;4983;42.112;24.738;2023-01-08T13:27:33;22.87;;;6.40;;
9888;SDS011;4983;42.112;24.738;2023-01-08T13:30:00;12.87;;;6.20;;
9888;SDS011;4983;42.112;24.738;2023-01-08T13:32:38;16.00;;;6.53;;
9888;SDS011;4983;42.112;24.738;2023-01-08T13:35:19;48.03;;;9.33;;
9888;SDS011;4983;42.112;24.738;2023-01-08T13:37:46;21.53;;;6.50;;
9888;SDS011;4983;42.112;24.738;2023-01-08T13:42:58;32.67;;;8.00;;
9888;SDS011;4983;42.112;24.738;2023-01-08T13:45:25;18.07;;;6.13;;
9888;SDS011;4983;42.112;24.738;2023-01-08T13:47:54;7.13;;;5.17;;
9888;SDS011;4983;42.112;24.738;2023-01-08T13:50:22;8.87;;;5.73;;
9888;SDS011;4983;42.112;24.738;2023-01-08T13:52:53;25.87;;;7.10;;
9888;SDS011;4983;42.112;24.738;2023-01-08T13:55:23;43.43;;;7.83;;
9888;SDS011;4983;42.112;24.738;2023-01-08T13:57:53;30.50;;;7.23;;
9888;SDS011;4983;42.112;24.738;2023-01-08T14:00:21;9.63;;;5.03;;
9888;SDS011;4983;42.112;24.738;2023-01-08T14:02:48;27.70;;;7.10;;
9888;SDS011;4983;42.112;24.738;2023-01-08T14:05:27;23.20;;;7.47;;
9888;SDS011;4983;42.112;24.738;2023-01-08T14:07:54;23.30;;;7.60;;
9888;SDS011;4983;42.112;24.738;2023-01-08T14:10:20;23.73;;;7.93;;
9888;SDS011;4983;42.112;24.738;2023-01-08T14:12:47;16.07;;;6.40;;
9888;SDS011;4983;42.112;24.738;2023-01-08T14:15:20;33.10;;;7.40;;
9888;SDS011;4983;42.112;24.738;2023-01-08T14:17:47;114.07;;;15.07;;
9888;SDS011;4983;42.112;24.738;2023-01-08T14:20:18;45.00;;;10.90;;
9888;SDS011;4983;42.112;24.738;2023-01-08T14:22:47;44.47;;;12.17;;
9888;SDS011;4983;42.112;24.738;2023-01-08T14:25:15;103.33;;;16.87;;
9888;SDS011;4983;42.112;24.738;2023-01-08T14:27:46;76.77;;;13.50;;
9888;SDS011;4983;42.112;24.738;2023-01-08T14:30:20;25.27;;;7.87;;
9888;SDS011;4983;42.112;24.738;2023-01-08T14:32:46;71.43;;;10.20;;
9888;SDS011;4983;42.112;24.738;2023-01-08T14:35:14;28.77;;;8.77;;
9888;SDS011;4983;42.112;24.738;2023-01-08T14:37:42;32.47;;;10.13;;
9888;SDS011;4983;42.112;24.738;2023-01-08T14:40:13;69.80;;;13.83;;
9888;SDS011;4983;42.112;24.738;2023-01-08T14:42:40;71.43;;;24.20;;
9888;SDS011;4983;42.112;24.738;2023-01-08T14:45:13;92.00;;;24.37;;
9888;SDS011;4983;42.112;24.738;2023-01-08T14:47:42;202.13;;;31.07;;
9888;SDS011;4983;42.112;24.738;2023-01-08T14:50:14;121.03;;;22.83;;
9888;SDS011;4983;42.112;24.738;2023-01-08T14:52:42;73.43;;;17.53;;